Time;durP1;ratioP1;P1;durP2;ratioP2;P2;SDS_P1;SDS_P2;PMS_P1;PMS_P2;Temp;Humidity;BMP_temperature;BMP_pressure;BME280_temperature;BME280_humidity;BME280_pressure;Samples;Min_cycle;Max_cycle;Signal;HPM_P1;HPM_P2
2021/10/08 00:00:27;;;;;;;29.30;19.52;;;10.80;75.90;;;;;;5107844;28;20051;-71
2021/10/08 00:02:53;;;;;;;30.73;19.38;;;10.80;75.90;;;;;;5106608;28;20047;-71
2021/10/08 00:05:18;;;;;;;29.50;19.40;;;10.80;76.00;;;;;;5075180;28;20115;-71
2021/10/08 00:07:44;;;;;;;22.80;18.45;;;10.80;75.90;;;;;;5109302;28;20027;-71
2021/10/08 00:10:10;;;;;;;25.83;19.65;;;10.80;75.90;;;;;;5109794;28;20080;-72
2021/10/08 00:12:35;;;;;;;25.98;19.33;;;10.70;75.90;;;;;;5110371;28;20084;-71
2021/10/08 00:15:01;;;;;;;24.13;18.73;;;10.60;76.00;;;;;;5111357;28;20120;-71
2021/10/08 00:17:27;;;;;;;25.45;19.10;;;10.60;76.00;;;;;;5108975;28;20034;-72
2021/10/08 00:19:53;;;;;;;23.33;17.63;;;10.60;76.00;;;;;;5092177;28;20417;-72
2021/10/08 00:22:18;;;;;;;21.88;17.00;;;10.60;75.90;;;;;;5107009;28;20032;-72
2021/10/08 00:24:44;;;;;;;22.90;17.60;;;10.60;76.00;;;;;;5092707;28;20491;-72
2021/10/08 00:27:09;;;;;;;25.80;18.70;;;10.50;76.00;;;;;;5075776;28;20030;-71
2021/10/08 00:29:35;;;;;;;23.50;17.58;;;10.50;76.00;;;;;;5108064;28;20077;-72
2021/10/08 00:32:01;;;;;;;27.80;19.55;;;10.50;75.90;;;;;;5087213;28;20474;-72
2021/10/08 00:34:26;;;;;;;23.95;18.65;;;10.50;75.90;;;;;;5088627;28;20059;-73
2021/10/08 00:36:52;;;;;;;27.60;19.27;;;10.50;75.90;;;;;;5107520;28;20045;-70
2021/10/08 00:39:18;;;;;;;24.38;18.35;;;10.40;75.80;;;;;;5109062;28;20024;-71
2021/10/08 00:41:44;;;;;;;24.25;17.95;;;10.40;75.80;;;;;;5088765;28;20067;-71
2021/10/08 00:44:10;;;;;;;24.02;17.48;;;10.40;75.80;;;;;;5087516;28;20099;-72
2021/10/08 00:46:37;;;;;;;25.73;17.52;;;10.40;75.80;;;;;;5091761;28;20042;-73
2021/10/08 00:49:03;;;;;;;27.30;17.52;;;10.30;75.80;;;;;;5108884;28;20409;-73
2021/10/08 00:51:29;;;;;;;20.73;16.27;;;10.30;75.80;;;;;;5074424;28;20032;-73
2021/10/08 00:53:54;;;;;;;23.20;17.63;;;10.20;75.80;;;;;;5052190;28;20064;-73
2021/10/08 00:56:20;;;;;;;25.33;19.23;;;10.30;75.90;;;;;;5066901;28;20128;-74
2021/10/08 00:58:47;;;;;;;25.30;18.92;;;10.20;75.90;;;;;;5067208;28;20554;-72
2021/10/08 01:01:16;;;;;;;26.75;17.90;;;10.20;76.00;;;;;;5064396;28;20033;-73
2021/10/08 01:03:42;;;;;;;24.05;16.85;;;10.10;76.00;;;;;;5063500;28;20377;-72
2021/10/08 01:06:09;;;;;;;25.75;17.98;;;10.10;76.10;;;;;;5059026;28;20103;-73
2021/10/08 01:08:34;;;;;;;23.05;17.60;;;10.10;76.20;;;;;;5064074;28;20043;-73
2021/10/08 01:11:01;;;;;;;23.55;17.27;;;10.10;76.20;;;;;;5064362;28;20029;-74
2021/10/08 01:13:27;;;;;;;25.00;17.00;;;10.10;76.30;;;;;;5067640;28;20082;-74
2021/10/08 01:15:54;;;;;;;24.88;18.00;;;10.10;76.30;;;;;;5064743;28;20037;-73
2021/10/08 01:18:20;;;;;;;25.67;18.02;;;10.00;76.30;;;;;;5063996;28;20061;-73
2021/10/08 01:20:46;;;;;;;25.58;18.77;;;10.00;76.30;;;;;;5045987;28;20024;-73
2021/10/08 01:23:11;;;;;;;27.63;18.67;;;10.00;76.30;;;;;;5068252;28;20025;-73
2021/10/08 01:25:38;;;;;;;23.10;17.13;;;10.00;76.40;;;;;;5063603;28;20168;-73
2021/10/08 01:28:05;;;;;;;26.73;19.05;;;10.00;76.40;;;;;;5062136;28;20377;-73
2021/10/08 01:30:32;;;;;;;24.90;18.60;;;10.00;76.40;;;;;;5066442;28;20119;-73
2021/10/08 01:32:58;;;;;;;25.98;19.67;;;9.90;76.40;;;;;;5062661;28;20036;-74
2021/10/08 01:35:24;;;;;;;25.35;18.05;;;9.90;76.40;;;;;;5064500;28;20028;-72
2021/10/08 01:37:49;;;;;;;28.65;18.17;;;9.90;76.40;;;;;;5065246;28;20444;-72
2021/10/08 01:40:17;;;;;;;27.73;18.80;;;9.90;76.40;;;;;;5066364;28;20108;-73
2021/10/08 01:42:42;;;;;;;28.17;19.67;;;9.80;76.30;;;;;;5063327;28;20078;-74
2021/10/08 01:45:11;;;;;;;27.77;20.38;;;9.80;76.40;;;;;;5069329;28;20032;-73
2021/10/08 01:47:37;;;;;;;27.70;20.00;;;9.80;76.40;;;;;;5064484;28;20100;-73
2021/10/08 01:50:03;;;;;;;28.05;20.25;;;9.70;76.50;;;;;;5068711;28;20123;-74
2021/10/08 01:52:29;;;;;;;28.35;18.45;;;9.70;76.50;;;;;;5068898;28;20131;-74
2021/10/08 01:54:55;;;;;;;27.73;19.20;;;9.70;76.60;;;;;;5102684;28;20110;-74
2021/10/08 01:57:21;;;;;;;25.02;18.65;;;9.70;76.70;;;;;;5106790;28;20081;-72
2021/10/08 01:59:46;;;;;;;25.77;17.55;;;9.70;76.70;;;;;;5087016;28;20023;-72
2021/10/08 02:02:12;;;;;;;27.15;18.98;;;9.70;76.70;;;;;;5105888;28;20089;-74
2021/10/08 02:04:38;;;;;;;24.67;17.13;;;9.60;76.70;;;;;;5105845;28;20075;-73
2021/10/08 02:07:04;;;;;;;23.67;18.00;;;9.60;76.70;;;;;;5109075;28;20031;-73
2021/10/08 02:09:29;;;;;;;24.88;18.80;;;9.60;77.00;;;;;;5109039;28;20035;-73
2021/10/08 02:11:55;;;;;;;28.00;18.30;;;9.60;76.80;;;;;;5106731;28;20023;-73
2021/10/08 02:14:21;;;;;;;25.40;18.75;;;9.60;76.90;;;;;;5084222;28;20371;-73
2021/10/08 02:16:46;;;;;;;25.60;18.67;;;9.50;76.90;;;;;;5105509;28;20031;-73
2021/10/08 02:19:12;;;;;;;24.80;18.77;;;9.50;77.00;;;;;;5085655;28;20158;-73
2021/10/08 02:21:38;;;;;;;26.13;18.27;;;9.50;77.00;;;;;;5088873;28;20442;-73
2021/10/08 02:24:04;;;;;;;25.92;18.10;;;9.50;77.10;;;;;;5108047;28;20031;-71
2021/10/08 02:26:30;;;;;;;27.00;18.05;;;9.50;77.10;;;;;;5101305;28;20031;-72
2021/10/08 02:28:56;;;;;;;25.40;19.48;;;9.40;77.20;;;;;;5103710;28;20042;-72
2021/10/08 02:31:22;;;;;;;23.95;17.90;;;9.50;77.30;;;;;;5071969;28;20032;-72
2021/10/08 02:33:47;;;;;;;24.60;18.48;;;9.40;77.30;;;;;;5108397;28;20039;-71
2021/10/08 02:36:13;;;;;;;28.85;19.65;;;9.40;77.30;;;;;;5108074;28;20042;-74
2021/10/08 02:38:40;;;;;;;28.33;19.48;;;9.40;77.40;;;;;;5090401;28;20043;-73
2021/10/08 02:41:06;;;;;;;26.98;18.83;;;9.40;77.50;;;;;;5107421;28;20101;-74
2021/10/08 02:43:33;;;;;;;26.38;19.25;;;9.40;77.50;;;;;;5109823;28;20512;-73
2021/10/08 02:45:59;;;;;;;27.73;19.38;;;9.30;77.50;;;;;;5090809;28;20492;-74
2021/10/08 02:48:25;;;;;;;29.77;20.95;;;9.30;77.50;;;;;;5102408;28;20020;-73
2021/10/08 02:50:51;;;;;;;30.45;19.05;;;9.30;77.70;;;;;;5091813;28;20043;-73
2021/10/08 02:53:17;;;;;;;31.13;20.33;;;9.30;77.70;;;;;;5112663;28;20039;-73
2021/10/08 02:55:43;;;;;;;30.45;20.65;;;9.30;77.80;;;;;;5088439;28;20442;-73
2021/10/08 02:58:09;;;;;;;28.77;19.15;;;9.20;77.70;;;;;;5094471;28;20016;-73
2021/10/08 03:00:34;;;;;;;25.17;18.67;;;9.20;77.70;;;;;;5111183;28;20048;-73
2021/10/08 03:03:00;;;;;;;25.58;19.65;;;9.20;77.80;;;;;;5112176;28;20035;-73
2021/10/08 03:05:26;;;;;;;29.52;19.25;;;9.20;77.80;;;;;;5093696;28;20109;-73
2021/10/08 03:07:52;;;;;;;28.25;19.33;;;9.20;78.00;;;;;;5111128;28;20441;-73
2021/10/08 03:10:19;;;;;;;30.90;19.65;;;9.20;78.10;;;;;;5075402;28;20067;-73
2021/10/08 03:12:46;;;;;;;25.52;19.17;;;9.20;78.10;;;;;;5093628;28;20032;-74
2021/10/08 03:15:12;;;;;;;27.08;18.75;;;9.20;78.20;;;;;;5106118;28;20040;-72
2021/10/08 03:17:37;;;;;;;25.38;17.55;;;9.20;78.20;;;;;;5089399;28;20147;-73
2021/10/08 03:20:05;;;;;;;27.80;19.80;;;9.20;78.20;;;;;;5110499;28;20485;-74
2021/10/08 03:22:31;;;;;;;26.90;19.27;;;9.10;78.20;;;;;;5104682;28;20061;-74
2021/10/08 03:24:57;;;;;;;25.65;18.60;;;9.10;78.30;;;;;;5110387;28;20067;-74
2021/10/08 03:27:23;;;;;;;26.95;18.73;;;9.10;78.30;;;;;;5106409;28;20915;-73
2021/10/08 03:29:49;;;;;;;26.27;18.25;;;9.10;78.40;;;;;;5110700;28;20027;-73
2021/10/08 03:32:15;;;;;;;24.75;18.23;;;9.00;78.30;;;;;;5110244;28;20043;-74
2021/10/08 03:34:41;;;;;;;26.73;18.92;;;9.00;78.30;;;;;;5092920;28;20027;-74
2021/10/08 03:37:10;;;;;;;28.42;19.98;;;9.00;78.40;;;;;;5111519;28;20126;-73
2021/10/08 03:39:39;;;;;;;28.08;20.55;;;9.10;78.50;;;;;;5091289;28;20074;-73
2021/10/08 03:42:06;;;;;;;29.67;20.35;;;9.00;78.40;;;;;;5107891;28;20030;-72
2021/10/08 03:44:39;;;;;;;26.73;19.98;;;9.00;78.50;;;;;;5107464;28;20470;-73
2021/10/08 03:47:15;;;;;;;27.08;18.95;;;9.00;78.40;;;;;;5086092;28;20122;-73
2021/10/08 03:49:44;;;;;;;27.38;18.58;;;9.00;78.40;;;;;;5110810;28;20027;-73
2021/10/08 03:52:10;;;;;;;26.73;18.52;;;9.00;78.40;;;;;;5104714;28;20034;-73
2021/10/08 03:54:35;;;;;;;29.23;21.15;;;9.00;78.40;;;;;;5106074;28;20035;-72
2021/10/08 03:57:02;;;;;;;26.55;19.20;;;8.90;78.50;;;;;;5110829;28;20023;-73
2021/10/08 03:59:27;;;;;;;29.20;19.95;;;8.90;78.40;;;;;;5107123;28;20036;-73
2021/10/08 04:01:55;;;;;;;30.02;20.90;;;8.90;78.60;;;;;;5069905;28;20430;-73
2021/10/08 04:04:21;;;;;;;30.45;19.83;;;8.90;78.60;;;;;;5106586;28;20077;-72
2021/10/08 04:06:48;;;;;;;28.55;20.08;;;8.90;78.60;;;;;;5075215;28;20038;-73
2021/10/08 04:09:14;;;;;;;27.40;18.88;;;8.90;78.60;;;;;;5105788;28;20047;-74
2021/10/08 04:11:40;;;;;;;26.27;19.27;;;8.90;78.40;;;;;;5087156;28;20028;-72
2021/10/08 04:14:06;;;;;;;29.17;20.00;;;8.80;78.40;;;;;;5090303;28;20035;-72
2021/10/08 04:16:33;;;;;;;27.83;19.90;;;8.80;78.50;;;;;;5106417;27;20047;-73
2021/10/08 04:18:59;;;;;;;27.60;18.73;;;8.80;78.70;;;;;;5109104;28;20054;-74
2021/10/08 04:21:25;;;;;;;26.20;18.88;;;8.80;78.70;;;;;;5106490;28;20024;-73
2021/10/08 04:23:51;;;;;;;26.65;18.63;;;8.80;78.70;;;;;;5092002;28;20042;-74
2021/10/08 04:26:16;;;;;;;28.80;20.02;;;8.70;78.70;;;;;;5103233;28;20099;-74
2021/10/08 04:28:42;;;;;;;26.52;18.90;;;8.70;78.60;;;;;;5088322;28;20164;-74
2021/10/08 04:31:08;;;;;;;28.27;19.38;;;8.70;78.60;;;;;;5084920;28;20028;-73
2021/10/08 04:33:34;;;;;;;30.20;19.83;;;8.70;78.60;;;;;;5088610;28;20058;-72
2021/10/08 04:36:00;;;;;;;29.83;18.75;;;8.70;78.60;;;;;;5091767;28;20028;-73
2021/10/08 04:38:28;;;;;;;33.78;20.35;;;8.70;78.60;;;;;;5086615;28;20035;-73
2021/10/08 04:40:54;;;;;;;29.05;19.33;;;8.60;78.70;;;;;;5108571;28;20128;-73
2021/10/08 04:43:20;;;;;;;27.80;20.02;;;8.70;78.80;;;;;;5106358;28;20382;-73
2021/10/08 04:45:45;;;;;;;29.48;19.10;;;8.60;78.70;;;;;;5084726;28;20032;-73
2021/10/08 04:48:12;;;;;;;29.83;19.50;;;8.60;78.70;;;;;;5091737;28;20023;-74
2021/10/08 04:50:38;;;;;;;26.88;18.73;;;8.60;78.80;;;;;;5103629;28;20509;-74
2021/10/08 04:53:20;;;;;;;27.73;18.10;;;8.60;79.00;;;;;;5087939;28;20127;-73
2021/10/08 04:55:47;;;;;;;30.33;18.63;;;8.60;79.00;;;;;;5105191;28;20046;-72
2021/10/08 04:58:13;;;;;;;28.73;18.48;;;8.60;78.90;;;;;;5109507;28;20093;-72
2021/10/08 05:00:39;;;;;;;27.60;18.42;;;8.60;78.90;;;;;;5108511;28;20059;-72
2021/10/08 05:03:10;;;;;;;25.85;17.83;;;8.60;78.90;;;;;;5092063;28;20028;-73
2021/10/08 05:05:36;;;;;;;28.90;18.55;;;8.50;78.90;;;;;;5106993;28;20467;-73
2021/10/08 05:08:02;;;;;;;26.00;17.52;;;8.50;79.10;;;;;;5084871;28;20086;-72
2021/10/08 05:10:29;;;;;;;22.70;16.33;;;8.50;79.20;;;;;;5103885;28;20032;-71
2021/10/08 05:12:54;;;;;;;29.23;17.38;;;8.50;79.20;;;;;;5103342;28;20027;-72
2021/10/08 05:15:20;;;;;;;29.98;18.90;;;8.50;79.20;;;;;;5092148;28;20352;-72
2021/10/08 05:17:46;;;;;;;32.45;17.33;;;8.50;79.50;;;;;;5108522;28;20035;-74
2021/10/08 05:20:11;;;;;;;34.45;17.83;;;8.50;79.40;;;;;;5108769;28;20098;-73
2021/10/08 05:22:37;;;;;;;30.33;17.58;;;8.40;79.40;;;;;;5107211;28;20047;-73
2021/10/08 05:25:04;;;;;;;29.52;17.30;;;8.40;79.50;;;;;;5088760;28;20415;-71
2021/10/08 05:27:29;;;;;;;27.13;16.70;;;8.40;79.60;;;;;;5091565;28;20039;-72
2021/10/08 05:29:55;;;;;;;27.63;16.45;;;8.40;79.70;;;;;;5108207;28;20031;-72
2021/10/08 05:32:21;;;;;;;28.60;14.40;;;8.40;79.80;;;;;;5085744;28;20031;-71
2021/10/08 05:34:46;;;;;;;21.35;14.90;;;8.40;79.90;;;;;;5106867;28;20122;-71
2021/10/08 05:37:12;;;;;;;26.70;14.73;;;8.40;79.90;;;;;;5104330;28;20090;-71
2021/10/08 05:39:38;;;;;;;36.97;14.20;;;8.40;79.90;;;;;;5107151;28;20123;-71
2021/10/08 05:42:03;;;;;;;26.80;13.75;;;8.40;79.90;;;;;;5105181;28;20367;-72
2021/10/08 05:44:29;;;;;;;39.92;14.38;;;8.40;79.90;;;;;;5103877;28;20083;-73
2021/10/08 05:46:55;;;;;;;36.05;14.20;;;8.40;80.00;;;;;;5074411;28;20015;-73
2021/10/08 05:49:21;;;;;;;21.52;13.43;;;8.40;80.00;;;;;;5071163;28;20036;-72
2021/10/08 05:51:47;;;;;;;18.30;12.52;;;8.30;80.10;;;;;;5107891;28;20039;-72
2021/10/08 05:54:12;;;;;;;19.50;13.75;;;8.30;80.10;;;;;;5107464;28;20044;-71
2021/10/08 05:56:38;;;;;;;22.65;14.50;;;8.30;80.10;;;;;;5108394;28;20536;-72
2021/10/08 05:59:04;;;;;;;18.45;13.10;;;8.30;80.10;;;;;;5088083;28;20111;-71
2021/10/08 06:01:29;;;;;;;24.08;13.95;;;8.30;80.20;;;;;;5088445;28;20379;-72
2021/10/08 06:03:55;;;;;;;29.58;13.38;;;8.30;80.10;;;;;;5108033;28;20027;-72
2021/10/08 06:06:21;;;;;;;19.80;13.60;;;8.30;80.20;;;;;;5088142;28;20446;-71
2021/10/08 06:08:46;;;;;;;19.38;12.68;;;8.30;80.20;;;;;;5108693;28;20063;-72
2021/10/08 06:11:14;;;;;;;16.85;12.02;;;8.30;80.30;;;;;;5104465;28;20027;-72
2021/10/08 06:13:40;;;;;;;19.38;12.63;;;8.30;80.40;;;;;;5107951;28;20592;-72
2021/10/08 06:16:05;;;;;;;23.23;11.90;;;8.30;80.70;;;;;;5108165;28;20106;-72
2021/10/08 06:18:31;;;;;;;33.20;12.63;;;8.40;80.80;;;;;;5104331;28;20505;-70
2021/10/08 06:20:57;;;;;;;23.23;12.77;;;8.40;80.90;;;;;;5100920;28;20739;-71
2021/10/08 06:23:23;;;;;;;19.85;13.82;;;8.40;81.00;;;;;;5106009;28;20468;-71
2021/10/08 06:25:49;;;;;;;34.63;13.93;;;8.40;81.10;;;;;;5087683;28;20028;-71
2021/10/08 06:28:15;;;;;;;33.22;13.63;;;8.40;81.30;;;;;;5100215;28;20300;-72
2021/10/08 06:30:41;;;;;;;20.00;13.50;;;8.40;81.30;;;;;;5102726;28;20020;-72
2021/10/08 06:33:06;;;;;;;40.85;12.90;;;8.40;81.40;;;;;;5105704;28;20028;-72
2021/10/08 06:35:33;;;;;;;82.20;13.20;;;8.50;81.70;;;;;;5086603;28;20039;-73
2021/10/08 06:37:59;;;;;;;68.03;12.65;;;8.50;81.80;;;;;;5107972;28;20057;-73
2021/10/08 06:40:26;;;;;;;30.88;12.27;;;8.50;81.90;;;;;;5105605;28;20355;-74
2021/10/08 06:42:51;;;;;;;52.30;12.45;;;8.50;82.10;;;;;;5105948;28;20047;-73
2021/10/08 06:45:17;;;;;;;17.30;11.63;;;8.60;82.30;;;;;;5089392;28;20031;-74
2021/10/08 06:47:43;;;;;;;24.63;12.38;;;8.60;82.50;;;;;;5104732;28;20521;-71
2021/10/08 06:50:09;;;;;;;17.25;10.98;;;8.60;82.80;;;;;;5106686;28;20063;-72
2021/10/08 06:52:35;;;;;;;30.63;12.88;;;8.60;82.90;;;;;;5103680;28;20048;-72
2021/10/08 06:55:00;;;;;;;40.58;13.40;;;8.70;83.10;;;;;;5107799;28;20039;-72
2021/10/08 06:57:27;;;;;;;31.08;12.75;;;8.70;83.20;;;;;;5085575;28;20111;-71
2021/10/08 06:59:53;;;;;;;40.92;13.25;;;8.80;83.40;;;;;;5103128;28;20035;-73
2021/10/08 07:02:19;;;;;;;42.88;14.27;;;8.80;83.70;;;;;;5086625;28;20452;-73
2021/10/08 07:04:45;;;;;;;81.68;15.38;;;8.80;83.80;;;;;;5105153;28;20105;-73
2021/10/08 07:07:10;;;;;;;77.38;16.58;;;8.80;84.10;;;;;;5089383;28;20043;-73
2021/10/08 07:09:36;;;;;;;75.60;16.13;;;8.90;84.20;;;;;;5108240;28;20024;-72
2021/10/08 07:12:02;;;;;;;55.75;17.30;;;8.90;84.30;;;;;;5101157;28;20030;-72
2021/10/08 07:14:28;;;;;;;60.97;17.08;;;8.90;84.60;;;;;;5102725;28;20027;-72
2021/10/08 07:16:55;;;;;;;93.80;18.38;;;9.00;84.80;;;;;;5108526;28;20496;-72
2021/10/08 07:19:23;;;;;;;61.58;18.20;;;9.00;85.00;;;;;;5090405;28;20028;-73
2021/10/08 07:21:49;;;;;;;47.30;18.40;;;9.00;85.30;;;;;;5109713;28;20100;-71
2021/10/08 07:24:15;;;;;;;65.32;18.73;;;9.10;85.40;;;;;;5110826;28;20020;-71
2021/10/08 07:26:40;;;;;;;66.57;19.05;;;9.10;85.60;;;;;;5076058;28;20381;-73
2021/10/08 07:29:06;;;;;;;58.25;19.33;;;9.10;85.80;;;;;;5109055;28;20068;-72
2021/10/08 07:31:33;;;;;;;58.22;19.38;;;9.20;85.80;;;;;;5089082;28;20047;-71
2021/10/08 07:33:58;;;;;;;54.38;18.95;;;9.20;85.90;;;;;;5092566;28;21085;-71
2021/10/08 07:36:25;;;;;;;42.95;18.60;;;9.20;86.00;;;;;;5086794;28;20061;-72
2021/10/08 07:38:51;;;;;;;44.95;18.83;;;9.30;86.10;;;;;;5092153;28;20455;-73
2021/10/08 07:41:17;;;;;;;85.43;18.77;;;9.30;86.20;;;;;;5111513;28;20031;-73
2021/10/08 07:43:43;;;;;;;111.90;20.23;;;9.30;86.20;;;;;;5112063;28;20106;-71
2021/10/08 07:46:09;;;;;;;103.63;20.00;;;9.40;86.40;;;;;;5086657;28;20031;-71
2021/10/08 07:48:36;;;;;;;89.93;21.02;;;9.40;86.40;;;;;;5099957;28;20125;-71
2021/10/08 07:51:02;;;;;;;48.78;17.75;;;9.50;86.60;;;;;;5110193;28;20383;-71
2021/10/08 07:53:28;;;;;;;44.47;19.38;;;9.50;86.70;;;;;;5108687;28;20047;-72
2021/10/08 07:55:55;;;;;;;79.07;18.48;;;9.60;86.80;;;;;;5111172;28;20019;-72
2021/10/08 07:58:26;;;;;;;60.17;18.25;;;9.60;86.90;;;;;;5104235;28;20106;-71
2021/10/08 08:00:56;;;;;;;83.35;17.40;;;9.70;86.90;;;;;;5091552;28;20449;-73
2021/10/08 08:03:22;;;;;;;55.28;17.20;;;9.70;86.90;;;;;;5108342;28;20038;-72
2021/10/08 08:05:48;;;;;;;43.60;18.73;;;9.80;87.00;;;;;;5110056;28;20031;-72
2021/10/08 08:08:14;;;;;;;61.15;17.42;;;9.80;87.20;;;;;;5076541;28;20057;-72
2021/10/08 08:10:40;;;;;;;57.47;16.90;;;9.80;87.30;;;;;;5107714;28;20032;-72
2021/10/08 08:13:05;;;;;;;46.22;17.98;;;9.90;87.40;;;;;;5090912;28;20027;-72
2021/10/08 08:15:31;;;;;;;59.72;17.55;;;9.90;87.60;;;;;;5072629;28;20032;-72
2021/10/08 08:17:57;;;;;;;41.38;17.85;;;10.00;87.90;;;;;;5110280;28;20051;-71
2021/10/08 08:20:23;;;;;;;56.92;18.38;;;10.00;87.70;;;;;;5092288;28;20453;-73
2021/10/08 08:22:49;;;;;;;34.50;19.05;;;10.10;87.70;;;;;;5088696;28;20078;-71
2021/10/08 08:25:14;;;;;;;28.92;17.10;;;10.20;87.80;;;;;;5106623;28;20055;-72
2021/10/08 08:27:40;;;;;;;53.92;19.25;;;10.20;87.80;;;;;;5104450;28;20040;-74
2021/10/08 08:30:07;;;;;;;38.83;17.95;;;10.30;87.80;;;;;;5103290;28;20012;-74
2021/10/08 08:32:33;;;;;;;55.08;19.17;;;10.40;87.90;;;;;;5101088;28;20055;-74
2021/10/08 08:34:59;;;;;;;22.45;18.80;;;10.40;87.90;;;;;;5102297;28;20086;-74
2021/10/08 08:37:25;;;;;;;40.03;18.98;;;10.50;88.00;;;;;;5104289;28;20044;-74
2021/10/08 08:39:51;;;;;;;25.80;19.02;;;10.60;88.00;;;;;;5110574;28;20052;-73
2021/10/08 08:42:18;;;;;;;48.30;19.60;;;10.60;87.80;;;;;;5109579;28;20537;-74
2021/10/08 08:44:44;;;;;;;44.30;17.77;;;10.70;87.90;;;;;;5090380;28;20115;-74
2021/10/08 08:47:18;;;;;;;42.00;20.50;;;10.70;88.00;;;;;;5084887;28;20110;-73
2021/10/08 08:49:44;;;;;;;26.70;19.13;;;10.80;88.10;;;;;;5105400;28;20035;-74
2021/10/08 08:52:10;;;;;;;35.88;20.15;;;10.90;88.20;;;;;;5085859;28;20081;-73
2021/10/08 08:54:36;;;;;;;28.30;19.35;;;11.00;88.40;;;;;;5087687;28;20069;-74
2021/10/08 08:57:13;;;;;;;25.48;18.13;;;11.10;88.40;;;;;;5066955;28;20491;-75
2021/10/08 09:00:12;;;;;;;28.50;20.23;;;11.20;88.40;;;;;;5108858;28;20035;-73
2021/10/08 09:02:40;;;;;;;33.88;21.60;;;11.30;88.20;;;;;;5089201;28;20052;-74
2021/10/08 09:05:16;;;;;;;27.20;20.70;;;11.40;88.10;;;;;;5090800;28;20043;-71
2021/10/08 09:07:41;;;;;;;28.52;21.42;;;11.50;88.20;;;;;;5108817;28;20047;-74
2021/10/08 09:10:13;;;;;;;27.23;19.88;;;11.60;88.10;;;;;;5090438;28;20032;-72
2021/10/08 09:12:40;;;;;;;27.35;19.83;;;11.60;88.20;;;;;;5105404;28;20023;-71
2021/10/08 09:15:08;;;;;;;28.98;20.58;;;11.80;88.10;;;;;;5089661;28;20419;-71
2021/10/08 09:17:34;;;;;;;27.10;20.00;;;11.90;88.10;;;;;;5108375;28;20138;-72
2021/10/08 09:20:03;;;;;;;25.67;20.40;;;12.00;88.00;;;;;;5110049;28;20456;-72
2021/10/08 09:22:39;;;;;;;28.88;21.25;;;12.20;87.90;;;;;;5090861;28;20102;-72
2021/10/08 09:25:15;;;;;;;27.98;20.27;;;12.30;87.90;;;;;;5102334;28;20028;-71
2021/10/08 09:27:49;;;;;;;25.63;19.00;;;12.40;87.80;;;;;;5087604;28;20023;-71
2021/10/08 09:30:15;;;;;;;24.13;18.85;;;12.60;87.70;;;;;;5104530;28;20088;-71
2021/10/08 09:32:48;;;;;;;22.95;17.73;;;12.70;87.60;;;;;;5106037;28;20466;-72
2021/10/08 09:35:19;;;;;;;25.35;18.58;;;12.90;87.60;;;;;;5089907;28;20545;-72
2021/10/08 09:37:55;;;;;;;24.60;18.65;;;13.00;87.40;;;;;;5106699;28;20383;-72
2021/10/08 09:40:27;;;;;;;25.10;18.20;;;13.10;87.20;;;;;;5106718;28;20084;-72
2021/10/08 09:43:07;;;;;;;20.88;17.08;;;13.20;87.10;;;;;;5091906;28;20028;-71
2021/10/08 09:45:44;;;;;;;22.20;17.45;;;13.40;86.80;;;;;;5107380;28;20026;-75
2021/10/08 09:48:11;;;;;;;23.38;17.88;;;13.40;86.70;;;;;;5100958;28;20537;-75
2021/10/08 09:50:38;;;;;;;26.10;19.55;;;13.50;86.50;;;;;;5102740;28;20023;-74
2021/10/08 09:53:12;;;;;;;26.42;19.65;;;13.60;86.30;;;;;;5096354;28;20047;-75
2021/10/08 09:55:39;;;;;;;26.50;19.30;;;13.70;86.30;;;;;;5102782;28;20032;-74
2021/10/08 09:58:05;;;;;;;29.60;20.02;;;13.80;86.10;;;;;;5083158;28;20028;-74
2021/10/08 10:00:40;;;;;;;27.00;19.23;;;13.90;85.80;;;;;;5076424;28;20043;-74
2021/10/08 10:03:07;;;;;;;29.27;20.67;;;14.00;85.90;;;;;;5098144;28;20044;-75
2021/10/08 10:05:34;;;;;;;29.13;20.13;;;14.20;85.70;;;;;;5097900;28;20062;-75
2021/10/08 10:08:00;;;;;;;27.98;21.02;;;14.30;85.50;;;;;;5102527;28;20035;-73
2021/10/08 10:10:26;;;;;;;26.05;19.45;;;14.40;85.20;;;;;;5087455;28;20024;-75
2021/10/08 10:12:52;;;;;;;26.73;19.52;;;14.50;84.90;;;;;;5105711;28;20800;-74
2021/10/08 10:15:19;;;;;;;28.08;21.17;;;14.60;84.90;;;;;;5088042;28;20067;-71
2021/10/08 10:17:47;;;;;;;27.92;20.83;;;14.70;84.60;;;;;;5103222;28;20101;-72
2021/10/08 10:20:14;;;;;;;25.80;19.67;;;14.80;84.20;;;;;;5088130;28;20347;-72
2021/10/08 10:22:42;;;;;;;27.90;20.52;;;14.90;84.20;;;;;;5097993;28;20032;-72
2021/10/08 10:25:11;;;;;;;30.08;20.52;;;15.10;84.10;;;;;;5096727;28;20039;-71
2021/10/08 10:27:39;;;;;;;28.50;20.75;;;15.30;83.70;;;;;;5103169;28;20359;-71
2021/10/08 10:30:06;;;;;;;23.77;19.42;;;15.50;83.30;;;;;;5103457;28;20050;-71
2021/10/08 10:32:33;;;;;;;29.23;21.83;;;15.60;83.00;;;;;;5097610;28;20043;-72
2021/10/08 10:35:03;;;;;;;25.88;20.85;;;15.60;82.00;;;;;;5099100;28;20042;-71
2021/10/08 10:37:41;;;;;;;24.35;19.67;;;15.70;82.30;;;;;;5065264;28;20046;-72
2021/10/08 10:40:18;;;;;;;29.23;20.60;;;15.80;82.50;;;;;;5089861;28;20027;-72
2021/10/08 10:42:44;;;;;;;28.33;21.67;;;16.00;81.90;;;;;;5090214;28;20044;-71
2021/10/08 10:45:20;;;;;;;27.38;19.85;;;16.10;81.30;;;;;;5087548;28;20020;-72
2021/10/08 10:48:26;;;;;;;26.65;21.60;;;16.20;81.20;;;;;;5108277;28;21288;-75
2021/10/08 10:51:14;;;;;;;29.75;21.88;;;16.30;81.00;;;;;;5088934;28;20032;-75
2021/10/08 10:53:53;;;;;;;30.13;23.45;;;16.40;80.50;;;;;;5111275;28;20096;-75
2021/10/08 10:56:54;;;;;;;30.17;21.20;;;16.50;79.90;;;;;;5112384;28;20027;-72
2021/10/08 10:59:22;;;;;;;27.73;20.70;;;16.70;79.20;;;;;;4993478;28;20046;-72
2021/10/08 11:02:10;;;;;;;24.73;19.70;;;16.70;79.80;;;;;;5083698;27;20143;-73
2021/10/08 11:04:48;;;;;;;27.50;20.33;;;16.80;79.10;;;;;;5109602;28;20027;-72
2021/10/08 11:07:22;;;;;;;21.00;17.20;;;16.90;79.10;;;;;;5093444;28;20035;-73
2021/10/08 11:10:16;;;;;;;24.13;17.80;;;17.10;78.60;;;;;;5110184;28;20111;-71
2021/10/08 11:12:42;;;;;;;22.35;18.30;;;17.20;78.00;;;;;;5087696;28;20517;-73
2021/10/08 11:15:17;;;;;;;25.35;18.50;;;17.30;77.50;;;;;;5109673;28;20036;-72
2021/10/08 11:17:56;;;;;;;21.13;17.10;;;17.40;76.80;;;;;;5081775;28;20035;-72
2021/10/08 11:20:25;;;;;;;18.23;15.18;;;17.60;76.30;;;;;;5081198;28;20122;-75
2021/10/08 11:22:58;;;;;;;16.98;15.07;;;17.70;75.10;;;;;;5099847;28;20035;-77
2021/10/08 11:25:24;;;;;;;15.98;11.93;;;17.80;74.50;;;;;;5085920;28;20119;-77
2021/10/08 12:38:59;;;;;;;3.53;2.70;;;17.80;68.00;;;;;;5008686;27;2008039;-75
2021/10/08 12:41:56;;;;;;;3.78;2.67;;;17.80;68.00;;;;;;5042314;28;20465;-76
2021/10/08 12:44:25;;;;;;;4.32;2.55;;;17.90;67.90;;;;;;5035508;28;20216;-76
2021/10/08 12:47:14;;;;;;;3.38;2.45;;;18.10;67.60;;;;;;5047105;28;20033;-75
2021/10/08 12:49:52;;;;;;;2.78;2.53;;;18.30;67.50;;;;;;5053059;28;20017;-76
2021/10/08 12:52:34;;;;;;;5.95;3.58;;;18.50;66.80;;;;;;5059386;28;20025;-76
2021/10/08 12:55:11;;;;;;;4.05;3.63;;;18.60;67.30;;;;;;5055339;28;20376;-75
2021/10/08 12:58:06;;;;;;;4.63;4.22;;;18.60;67.30;;;;;;5063445;28;20040;-72
2021/10/08 13:00:42;;;;;;;5.63;4.85;;;18.70;67.20;;;;;;5055426;28;20030;-76
2021/10/08 13:03:26;;;;;;;6.03;5.43;;;18.70;66.60;;;;;;5046029;28;20035;-76
2021/10/08 13:05:54;;;;;;;7.10;6.05;;;18.70;67.10;;;;;;5059771;28;20078;-76
2021/10/08 13:08:21;;;;;;;6.82;5.68;;;18.80;67.10;;;;;;5060491;28;20025;-76
2021/10/08 13:10:54;;;;;;;7.07;6.47;;;18.90;67.70;;;;;;5036478;28;20048;-76
2021/10/08 13:13:24;;;;;;;8.73;7.78;;;18.90;67.30;;;;;;5059342;28;20086;-76
2021/10/08 13:15:50;;;;;;;8.07;7.05;;;19.40;66.60;;;;;;5060620;28;20044;-75
2021/10/08 13:18:16;;;;;;;8.18;7.28;;;19.90;65.40;;;;;;5043760;28;20021;-76
2021/10/08 13:20:44;;;;;;;10.18;8.30;;;20.20;64.60;;;;;;5035223;28;20086;-76
2021/10/08 13:23:12;;;;;;;8.57;7.25;;;20.50;63.90;;;;;;5057405;28;20140;-75
2021/10/08 13:25:42;;;;;;;8.00;7.30;;;21.10;62.60;;;;;;5023473;28;20435;-76
2021/10/08 13:28:09;;;;;;;7.10;6.50;;;22.20;59.50;;;;;;5042734;28;20606;-75
2021/10/08 13:30:35;;;;;;;7.63;6.93;;;23.20;57.00;;;;;;5054324;28;20064;-76
2021/10/08 13:33:01;;;;;;;8.27;7.57;;;24.10;54.60;;;;;;5055632;28;20079;-76
2021/10/08 13:35:27;;;;;;;6.75;6.15;;;25.20;51.60;;;;;;5057922;28;20044;-76
2021/10/08 13:37:53;;;;;;;7.45;6.75;;;26.40;49.70;;;;;;5052064;28;20472;-75
2021/10/08 13:40:21;;;;;;;8.38;7.25;;;27.30;47.60;;;;;;5036736;28;20025;-75
2021/10/08 13:42:47;;;;;;;7.30;6.60;;;27.70;46.10;;;;;;5039200;28;20115;-76
2021/10/08 13:45:13;;;;;;;7.43;6.82;;;28.40;44.90;;;;;;5037098;28;20033;-76
2021/10/08 13:47:39;;;;;;;7.95;7.15;;;29.00;43.60;;;;;;5054904;28;20573;-76